sensor_id;sensor_type;location;lat;lon;timestamp;temperature;humidity
37281;DHT22;23169;41.804;12.596;2023-05-19T00:02:10;16.40;78.70
37281;DHT22;23169;41.804;12.596;2023-05-19T00:04:39;16.40;79.70
37281;DHT22;23169;41.804;12.596;2023-05-19T00:07:10;16.60;92.90
37281;DHT22;23169;41.804;12.596;2023-05-19T00:09:39;16.40;84.40
37281;DHT22;23169;41.804;12.596;2023-05-19T00:12:08;16.40;86.60
37281;DHT22;23169;41.804;12.596;2023-05-19T00:14:38;16.40;85.50
37281;DHT22;23169;41.804;12.596;2023-05-19T00:17:07;16.40;85.00
37281;DHT22;23169;41.804;12.596;2023-05-19T00:19:37;16.40;85.30
37281;DHT22;23169;41.804;12.596;2023-05-19T00:22:06;16.40;86.80
37281;DHT22;23169;41.804;12.596;2023-05-19T00:24:36;16.40;89.90
37281;DHT22;23169;41.804;12.596;2023-05-19T00:27:04;16.30;90.60
37281;DHT22;23169;41.804;12.596;2023-05-19T00:29:33;16.30;91.60
37281;DHT22;23169;41.804;12.596;2023-05-19T00:32:02;16.30;93.20
37281;DHT22;23169;41.804;12.596;2023-05-19T00:34:32;16.30;95.20
37281;DHT22;23169;41.804;12.596;2023-05-19T00:37:00;16.20;95.70
37281;DHT22;23169;41.804;12.596;2023-05-19T00:39:30;16.20;95.70
37281;DHT22;23169;41.804;12.596;2023-05-19T00:41:58;16.20;96.20
37281;DHT22;23169;41.804;12.596;2023-05-19T00:44:28;16.20;96.80
37281;DHT22;23169;41.804;12.596;2023-05-19T00:49:26;15.90;99.90
37281;DHT22;23169;41.804;12.596;2023-05-19T00:51:56;16.10;97.80
37281;DHT22;23169;41.804;12.596;2023-05-19T00:54:27;16.10;97.60
37281;DHT22;23169;41.804;12.596;2023-05-19T00:56:56;16.10;98.90
37281;DHT22;23169;41.804;12.596;2023-05-19T00:59:26;16.00;99.90
37281;DHT22;23169;41.804;12.596;2023-05-19T01:01:55;15.90;99.90
37281;DHT22;23169;41.804;12.596;2023-05-19T01:04:23;15.90;99.90
37281;DHT22;23169;41.804;12.596;2023-05-19T01:06:53;15.80;99.90
37281;DHT22;23169;41.804;12.596;2023-05-19T01:09:23;15.80;99.90
37281;DHT22;23169;41.804;12.596;2023-05-19T01:11:52;15.80;99.90
37281;DHT22;23169;41.804;12.596;2023-05-19T01:14:21;15.80;99.90
37281;DHT22;23169;41.804;12.596;2023-05-19T01:17:05;15.80;99.90
37281;DHT22;23169;41.804;12.596;2023-05-19T01:25:32;15.90;99.90
37281;DHT22;23169;41.804;12.596;2023-05-19T01:30:53;15.90;99.90
37281;DHT22;23169;41.804;12.596;2023-05-19T01:33:23;16.00;99.90
37281;DHT22;23169;41.804;12.596;2023-05-19T01:35:54;16.00;99.90
37281;DHT22;23169;41.804;12.596;2023-05-19T01:38:24;16.00;99.90
37281;DHT22;23169;41.804;12.596;2023-05-19T01:40:55;15.90;99.90
37281;DHT22;23169;41.804;12.596;2023-05-19T01:43:25;15.90;99.90
37281;DHT22;23169;41.804;12.596;2023-05-19T01:45:55;15.90;99.90
37281;DHT22;23169;41.804;12.596;2023-05-19T01:48:26;15.80;99.90
37281;DHT22;23169;41.804;12.596;2023-05-19T01:50:55;15.80;99.90
37281;DHT22;23169;41.804;12.596;2023-05-19T01:53:24;15.80;99.90
37281;DHT22;23169;41.804;12.596;2023-05-19T01:55:55;15.80;99.90
37281;DHT22;23169;41.804;12.596;2023-05-19T01:58:43;15.80;99.90
37281;DHT22;23169;41.804;12.596;2023-05-19T02:04:18;15.80;99.90
37281;DHT22;23169;41.804;12.596;2023-05-19T02:09:37;15.80;99.90
37281;DHT22;23169;41.804;12.596;2023-05-19T02:15:06;15.70;99.90
37281;DHT22;23169;41.804;12.596;2023-05-19T02:17:41;15.70;99.90
37281;DHT22;23169;41.804;12.596;2023-05-19T02:20:10;15.70;99.90
37281;DHT22;23169;41.804;12.596;2023-05-19T02:22:39;15.70;99.90
37281;DHT22;23169;41.804;12.596;2023-05-19T02:25:09;15.70;99.90
37281;DHT22;23169;41.804;12.596;2023-05-19T02:27:39;15.70;99.90
37281;DHT22;23169;41.804;12.596;2023-05-19T02:30:08;15.70;99.90
37281;DHT22;23169;41.804;12.596;2023-05-19T02:32:37;15.90;99.90
37281;DHT22;23169;41.804;12.596;2023-05-19T02:35:07;15.60;99.90
37281;DHT22;23169;41.804;12.596;2023-05-19T02:37:37;15.60;99.90
37281;DHT22;23169;41.804;12.596;2023-05-19T02:40:18;15.80;99.90
37281;DHT22;23169;41.804;12.596;2023-05-19T02:43:00;15.50;99.90
37281;DHT22;23169;41.804;12.596;2023-05-19T02:45:31;15.60;99.90
37281;DHT22;23169;41.804;12.596;2023-05-19T02:48:07;16.00;99.90
37281;DHT22;23169;41.804;12.596;2023-05-19T02:50:56;15.50;99.90
37281;DHT22;23169;41.804;12.596;2023-05-19T02:53:29;15.60;99.90
37281;DHT22;23169;41.804;12.596;2023-05-19T02:56:01;15.70;99.90
37281;DHT22;23169;41.804;12.596;2023-05-19T02:58:44;15.60;99.90
37281;DHT22;23169;41.804;12.596;2023-05-19T03:01:19;15.50;99.90
37281;DHT22;23169;41.804;12.596;2023-05-19T03:04:04;15.50;99.90
37281;DHT22;23169;41.804;12.596;2023-05-19T03:06:33;15.60;99.90
37281;DHT22;23169;41.804;12.596;2023-05-19T03:09:02;15.60;99.90
37281;DHT22;23169;41.804;12.596;2023-05-19T03:11:31;15.60;99.90
37281;DHT22;23169;41.804;12.596;2023-05-19T03:14:00;15.60;99.90
37281;DHT22;23169;41.804;12.596;2023-05-19T03:16:31;15.60;99.90
37281;DHT22;23169;41.804;12.596;2023-05-19T03:19:00;15.60;99.90
37281;DHT22;23169;41.804;12.596;2023-05-19T03:21:29;15.60;99.90
37281;DHT22;23169;41.804;12.596;2023-05-19T03:24:00;15.60;99.90
37281;DHT22;23169;41.804;12.596;2023-05-19T03:26:29;15.60;99.90
37281;DHT22;23169;41.804;12.596;2023-05-19T03:43:27;16.00;99.90
37281;DHT22;23169;41.804;12.596;2023-05-19T03:45:57;15.90;99.90
37281;DHT22;23169;41.804;12.596;2023-05-19T03:48:25;15.90;99.90
37281;DHT22;23169;41.804;12.596;2023-05-19T03:50:54;15.80;99.90
37281;DHT22;23169;41.804;12.596;2023-05-19T03:53:23;15.80;99.90
37281;DHT22;23169;41.804;12.596;2023-05-19T03:55:52;15.80;99.90
37281;DHT22;23169;41.804;12.596;2023-05-19T03:58:21;15.70;99.90
37281;DHT22;23169;41.804;12.596;2023-05-19T04:00:50;15.80;99.90
37281;DHT22;23169;41.804;12.596;2023-05-19T04:03:18;15.70;99.90
37281;DHT22;23169;41.804;12.596;2023-05-19T04:05:47;15.70;99.90
37281;DHT22;23169;41.804;12.596;2023-05-19T04:08:16;15.70;99.90
37281;DHT22;23169;41.804;12.596;2023-05-19T04:10:45;15.60;99.90
37281;DHT22;23169;41.804;12.596;2023-05-19T04:13:13;15.60;99.90
37281;DHT22;23169;41.804;12.596;2023-05-19T04:15:43;15.60;99.90
37281;DHT22;23169;41.804;12.596;2023-05-19T04:18:11;15.60;99.90
37281;DHT22;23169;41.804;12.596;2023-05-19T04:20:40;15.70;99.90
37281;DHT22;23169;41.804;12.596;2023-05-19T04:23:13;15.70;99.90
37281;DHT22;23169;41.804;12.596;2023-05-19T04:25:42;15.70;99.90
37281;DHT22;23169;41.804;12.596;2023-05-19T04:28:13;15.60;99.90
37281;DHT22;23169;41.804;12.596;2023-05-19T04:30:42;15.70;99.90
37281;DHT22;23169;41.804;12.596;2023-05-19T04:33:13;15.70;99.90
37281;DHT22;23169;41.804;12.596;2023-05-19T04:35:43;15.70;99.90
37281;DHT22;23169;41.804;12.596;2023-05-19T04:38:12;15.70;99.90
37281;DHT22;23169;41.804;12.596;2023-05-19T04:40:41;15.70;99.90
37281;DHT22;23169;41.804;12.596;2023-05-19T04:43:10;15.70;99.90
37281;DHT22;23169;41.804;12.596;2023-05-19T04:45:40;15.70;99.90
37281;DHT22;23169;41.804;12.596;2023-05-19T04:48:10;15.70;99.90
37281;DHT22;23169;41.804;12.596;2023-05-19T04:50:39;15.70;99.90
37281;DHT22;23169;41.804;12.596;2023-05-19T04:53:09;15.60;99.90
37281;DHT22;23169;41.804;12.596;2023-05-19T04:55:39;15.70;99.90
37281;DHT22;23169;41.804;12.596;2023-05-19T04:58:08;15.70;99.90
37281;DHT22;23169;41.804;12.596;2023-05-19T05:00:36;15.70;99.90
37281;DHT22;23169;41.804;12.596;2023-05-19T05:03:08;15.70;99.90
37281;DHT22;23169;41.804;12.596;2023-05-19T05:05:37;15.80;99.90
37281;DHT22;23169;41.804;12.596;2023-05-19T05:08:06;15.80;99.90
37281;DHT22;23169;41.804;12.596;2023-05-19T05:10:35;15.80;99.90
37281;DHT22;23169;41.804;12.596;2023-05-19T05:13:04;15.90;99.90
37281;DHT22;23169;41.804;12.596;2023-05-19T05:15:33;15.90;99.90
37281;DHT22;23169;41.804;12.596;2023-05-19T05:18:04;16.00;99.90
37281;DHT22;23169;41.804;12.596;2023-05-19T05:20:35;16.10;99.90
37281;DHT22;23169;41.804;12.596;2023-05-19T05:23:04;16.10;99.90
37281;DHT22;23169;41.804;12.596;2023-05-19T05:25:33;16.20;99.90
37281;DHT22;23169;41.804;12.596;2023-05-19T05:28:03;16.20;99.90
37281;DHT22;23169;41.804;12.596;2023-05-19T05:30:48;16.30;99.90
37281;DHT22;23169;41.804;12.596;2023-05-19T05:33:15;16.40;99.90
37281;DHT22;23169;41.804;12.596;2023-05-19T05:35:53;16.40;99.90
37281;DHT22;23169;41.804;12.596;2023-05-19T05:38:22;16.50;99.90
37281;DHT22;23169;41.804;12.596;2023-05-19T05:40:51;16.60;99.90
37281;DHT22;23169;41.804;12.596;2023-05-19T05:43:23;16.60;99.90
37281;DHT22;23169;41.804;12.596;2023-05-19T05:45:51;16.60;99.90
37281;DHT22;23169;41.804;12.596;2023-05-19T05:48:21;16.70;99.90
37281;DHT22;23169;41.804;12.596;2023-05-19T05:50:49;16.80;99.90
37281;DHT22;23169;41.804;12.596;2023-05-19T05:53:20;16.80;99.90
37281;DHT22;23169;41.804;12.596;2023-05-19T05:55:48;16.90;99.90
37281;DHT22;23169;41.804;12.596;2023-05-19T05:58:17;17.00;99.90
37281;DHT22;23169;41.804;12.596;2023-05-19T06:00:46;17.10;99.90
37281;DHT22;23169;41.804;12.596;2023-05-19T06:03:18;17.20;99.90
37281;DHT22;23169;41.804;12.596;2023-05-19T06:05:51;17.40;99.90
37281;DHT22;23169;41.804;12.596;2023-05-19T06:08:20;17.50;99.90
37281;DHT22;23169;41.804;12.596;2023-05-19T06:10:48;17.50;99.90
37281;DHT22;23169;41.804;12.596;2023-05-19T06:13:17;17.50;99.90
37281;DHT22;23169;41.804;12.596;2023-05-19T06:15:50;17.60;99.90
37281;DHT22;23169;41.804;12.596;2023-05-19T06:23:17;18.10;99.90
37281;DHT22;23169;41.804;12.596;2023-05-19T06:25:48;17.90;99.90
37281;DHT22;23169;41.804;12.596;2023-05-19T06:28:17;18.40;99.90
37281;DHT22;23169;41.804;12.596;2023-05-19T06:30:46;18.00;99.90
37281;DHT22;23169;41.804;12.596;2023-05-19T06:33:14;18.10;99.90
37281;DHT22;23169;41.804;12.596;2023-05-19T06:35:43;18.20;99.90
37281;DHT22;23169;41.804;12.596;2023-05-19T06:38:11;18.20;99.70
37281;DHT22;23169;41.804;12.596;2023-05-19T06:43:09;18.20;91.10
37281;DHT22;23169;41.804;12.596;2023-05-19T06:48:14;18.10;90.10
37281;DHT22;23169;41.804;12.596;2023-05-19T06:50:42;18.00;93.60
37281;DHT22;23169;41.804;12.596;2023-05-19T06:53:11;18.00;93.10
37281;DHT22;23169;41.804;12.596;2023-05-19T06:55:40;18.00;92.30
37281;DHT22;23169;41.804;12.596;2023-05-19T06:58:08;17.90;92.10
37281;DHT22;23169;41.804;12.596;2023-05-19T07:00:38;17.90;92.70
37281;DHT22;23169;41.804;12.596;2023-05-19T07:03:07;17.90;92.70
37281;DHT22;23169;41.804;12.596;2023-05-19T07:05:38;17.90;91.70
37281;DHT22;23169;41.804;12.596;2023-05-19T07:08:07;17.90;91.80
37281;DHT22;23169;41.804;12.596;2023-05-19T07:10:36;17.90;90.60
37281;DHT22;23169;41.804;12.596;2023-05-19T07:13:05;17.80;90.50
37281;DHT22;23169;41.804;12.596;2023-05-19T07:15:33;17.80;90.70
37281;DHT22;23169;41.804;12.596;2023-05-19T07:18:02;17.80;90.80
37281;DHT22;23169;41.804;12.596;2023-05-19T07:20:32;17.80;91.50
37281;DHT22;23169;41.804;12.596;2023-05-19T07:23:04;17.80;91.70
37281;DHT22;23169;41.804;12.596;2023-05-19T07:25:33;17.80;91.00
37281;DHT22;23169;41.804;12.596;2023-05-19T07:28:01;17.80;90.60
37281;DHT22;23169;41.804;12.596;2023-05-19T07:30:32;17.80;91.00
37281;DHT22;23169;41.804;12.596;2023-05-19T07:33:01;17.80;91.40
37281;DHT22;23169;41.804;12.596;2023-05-19T07:35:32;17.90;91.40
37281;DHT22;23169;41.804;12.596;2023-05-19T07:38:01;17.90;91.20
37281;DHT22;23169;41.804;12.596;2023-05-19T07:40:31;17.90;90.90
37281;DHT22;23169;41.804;12.596;2023-05-19T07:43:02;17.90;90.10
37281;DHT22;23169;41.804;12.596;2023-05-19T07:45:31;17.90;88.70
37281;DHT22;23169;41.804;12.596;2023-05-19T07:47:59;17.90;86.70
37281;DHT22;23169;41.804;12.596;2023-05-19T07:50:29;18.00;87.40
37281;DHT22;23169;41.804;12.596;2023-05-19T07:52:58;18.00;86.00
37281;DHT22;23169;41.804;12.596;2023-05-19T07:55:26;18.10;88.90
37281;DHT22;23169;41.804;12.596;2023-05-19T07:57:55;18.10;89.70
37281;DHT22;23169;41.804;12.596;2023-05-19T08:00:24;18.10;87.80
37281;DHT22;23169;41.804;12.596;2023-05-19T08:02:53;18.10;88.00
37281;DHT22;23169;41.804;12.596;2023-05-19T08:07:59;18.10;76.90
37281;DHT22;23169;41.804;12.596;2023-05-19T08:10:29;18.20;87.10
37281;DHT22;23169;41.804;12.596;2023-05-19T08:12:57;18.10;85.00
37281;DHT22;23169;41.804;12.596;2023-05-19T08:17:55;18.00;77.00
37281;DHT22;23169;41.804;12.596;2023-05-19T08:20:24;18.00;87.10
37281;DHT22;23169;41.804;12.596;2023-05-19T08:22:53;17.90;87.80
37281;DHT22;23169;41.804;12.596;2023-05-19T08:25:22;17.90;87.60
37281;DHT22;23169;41.804;12.596;2023-05-19T08:27:50;17.90;89.20
37281;DHT22;23169;41.804;12.596;2023-05-19T08:30:19;17.90;88.50
37281;DHT22;23169;41.804;12.596;2023-05-19T08:32:48;18.00;86.50
37281;DHT22;23169;41.804;12.596;2023-05-19T08:35:18;18.00;87.10
37281;DHT22;23169;41.804;12.596;2023-05-19T08:37:50;18.00;89.70
37281;DHT22;23169;41.804;12.596;2023-05-19T08:40:19;18.00;91.70
37281;DHT22;23169;41.804;12.596;2023-05-19T08:45:17;18.00;90.00
37281;DHT22;23169;41.804;12.596;2023-05-19T08:47:46;17.90;96.10
37281;DHT22;23169;41.804;12.596;2023-05-19T08:50:23;18.00;95.10
37281;DHT22;23169;41.804;12.596;2023-05-19T08:53:18;18.00;99.40
37281;DHT22;23169;41.804;12.596;2023-05-19T08:56:10;18.10;99.90
37281;DHT22;23169;41.804;12.596;2023-05-19T08:58:40;18.20;99.80
37281;DHT22;23169;41.804;12.596;2023-05-19T09:01:13;18.30;97.70
37281;DHT22;23169;41.804;12.596;2023-05-19T09:03:46;18.40;96.90
37281;DHT22;23169;41.804;12.596;2023-05-19T09:06:16;18.50;96.90
37281;DHT22;23169;41.804;12.596;2023-05-19T09:08:49;18.70;95.60
37281;DHT22;23169;41.804;12.596;2023-05-19T09:11:18;18.80;94.50
37281;DHT22;23169;41.804;12.596;2023-05-19T09:16:18;19.00;85.60
37281;DHT22;23169;41.804;12.596;2023-05-19T09:18:55;19.10;90.00
37281;DHT22;23169;41.804;12.596;2023-05-19T09:21:28;19.20;90.00
37281;DHT22;23169;41.804;12.596;2023-05-19T09:24:04;19.50;89.50
37281;DHT22;23169;41.804;12.596;2023-05-19T09:29:16;20.00;78.70
37281;DHT22;23169;41.804;12.596;2023-05-19T09:31:52;20.30;68.50
37281;DHT22;23169;41.804;12.596;2023-05-19T09:34:22;20.50;60.40
37281;DHT22;23169;41.804;12.596;2023-05-19T09:36:52;20.60;56.70
37281;DHT22;23169;41.804;12.596;2023-05-19T09:39:22;20.70;48.40
37281;DHT22;23169;41.804;12.596;2023-05-19T09:41:53;20.90;46.50
37281;DHT22;23169;41.804;12.596;2023-05-19T09:44:22;20.90;44.70
37281;DHT22;23169;41.804;12.596;2023-05-19T09:46:52;21.10;40.10
37281;DHT22;23169;41.804;12.596;2023-05-19T09:49:27;21.30;38.90
37281;DHT22;23169;41.804;12.596;2023-05-19T09:52:03;21.40;31.60
37281;DHT22;23169;41.804;12.596;2023-05-19T09:54:34;21.40;29.50
37281;DHT22;23169;41.804;12.596;2023-05-19T09:57:04;21.30;27.50
37281;DHT22;23169;41.804;12.596;2023-05-19T10:02:14;21.00;18.80
37281;DHT22;23169;41.804;12.596;2023-05-19T10:04:45;20.90;27.70
37281;DHT22;23169;41.804;12.596;2023-05-19T10:07:14;20.70;27.80
37281;DHT22;23169;41.804;12.596;2023-05-19T10:09:45;20.70;27.70
37281;DHT22;23169;41.804;12.596;2023-05-19T10:12:15;20.60;28.10
37281;DHT22;23169;41.804;12.596;2023-05-19T10:14:46;20.50;29.70
37281;DHT22;23169;41.804;12.596;2023-05-19T10:17:15;20.50;31.50
37281;DHT22;23169;41.804;12.596;2023-05-19T10:22:13;20.60;24.00
37281;DHT22;23169;41.804;12.596;2023-05-19T10:24:42;20.60;32.20
37281;DHT22;23169;41.804;12.596;2023-05-19T10:27:13;20.70;31.40
37281;DHT22;23169;41.804;12.596;2023-05-19T10:29:46;20.90;29.10
37281;DHT22;23169;41.804;12.596;2023-05-19T10:32:19;21.30;29.80
37281;DHT22;23169;41.804;12.596;2023-05-19T10:35:19;21.50;27.90
37281;DHT22;23169;41.804;12.596;2023-05-19T10:46:25;22.20;22.70
37281;DHT22;23169;41.804;12.596;2023-05-19T10:48:54;22.50;17.20
37281;DHT22;23169;41.804;12.596;2023-05-19T10:51:30;22.30;21.10
37281;DHT22;23169;41.804;12.596;2023-05-19T10:54:06;22.60;18.60
37281;DHT22;23169;41.804;12.596;2023-05-19T10:56:38;23.00;16.00
37281;DHT22;23169;41.804;12.596;2023-05-19T10:59:29;23.20;16.90
37281;DHT22;23169;41.804;12.596;2023-05-19T11:02:06;23.60;11.40
37281;DHT22;23169;41.804;12.596;2023-05-19T11:04:47;23.60;7.40
37281;DHT22;23169;41.804;12.596;2023-05-19T11:07:20;23.50;7.20
37281;DHT22;23169;41.804;12.596;2023-05-19T11:09:51;23.60;4.20
37281;DHT22;23169;41.804;12.596;2023-05-19T11:12:23;23.70;4.70
37281;DHT22;23169;41.804;12.596;2023-05-19T11:14:53;23.90;3.20
37281;DHT22;23169;41.804;12.596;2023-05-19T11:17:23;24.00;4.10
37281;DHT22;23169;41.804;12.596;2023-05-19T11:19:54;23.80;1.00
37281;DHT22;23169;41.804;12.596;2023-05-19T11:22:25;23.70;1.20
37281;DHT22;23169;41.804;12.596;2023-05-19T11:24:54;23.50;1.00
37281;DHT22;23169;41.804;12.596;2023-05-19T11:32:35;23.60;1.00
37281;DHT22;23169;41.804;12.596;2023-05-19T11:35:09;23.80;1.00
37281;DHT22;23169;41.804;12.596;2023-05-19T11:37:41;24.40;1.00
37281;DHT22;23169;41.804;12.596;2023-05-19T11:40:12;24.70;1.00
37281;DHT22;23169;41.804;12.596;2023-05-19T11:42:42;24.80;1.00
37281;DHT22;23169;41.804;12.596;2023-05-19T11:45:15;25.10;1.00
37281;DHT22;23169;41.804;12.596;2023-05-19T11:47:45;25.50;1.00
37281;DHT22;23169;41.804;12.596;2023-05-19T11:50:14;26.10;1.00
37281;DHT22;23169;41.804;12.596;2023-05-19T11:52:44;26.20;1.00
37281;DHT22;23169;41.804;12.596;2023-05-19T11:55:18;26.00;1.00
37281;DHT22;23169;41.804;12.596;2023-05-19T11:57:58;26.50;1.00
37281;DHT22;23169;41.804;12.596;2023-05-19T12:00:30;26.90;1.00
37281;DHT22;23169;41.804;12.596;2023-05-19T12:03:04;27.10;1.00
37281;DHT22;23169;41.804;12.596;2023-05-19T12:05:36;27.10;1.00
37281;DHT22;23169;41.804;12.596;2023-05-19T12:08:05;26.90;1.00
37281;DHT22;23169;41.804;12.596;2023-05-19T12:10:34;26.90;1.00
37281;DHT22;23169;41.804;12.596;2023-05-19T12:13:04;26.70;1.00
37281;DHT22;23169;41.804;12.596;2023-05-19T12:15:33;26.60;1.00
37281;DHT22;23169;41.804;12.596;2023-05-19T12:18:02;26.30;1.00
37281;DHT22;23169;41.804;12.596;2023-05-19T12:20:32;25.60;1.00
37281;DHT22;23169;41.804;12.596;2023-05-19T12:23:02;25.50;1.00
37281;DHT22;23169;41.804;12.596;2023-05-19T12:25:32;25.20;1.00
37281;DHT22;23169;41.804;12.596;2023-05-19T12:28:02;24.90;1.00
37281;DHT22;23169;41.804;12.596;2023-05-19T12:30:35;25.10;1.00
37281;DHT22;23169;41.804;12.596;2023-05-19T12:33:03;25.60;1.00
37281;DHT22;23169;41.804;12.596;2023-05-19T12:35:32;25.80;1.00
37281;DHT22;23169;41.804;12.596;2023-05-19T12:38:05;26.50;1.00
37281;DHT22;23169;41.804;12.596;2023-05-19T12:40:35;26.80;1.00
37281;DHT22;23169;41.804;12.596;2023-05-19T12:43:07;27.00;1.00
37281;DHT22;23169;41.804;12.596;2023-05-19T12:45:39;26.80;1.00
37281;DHT22;23169;41.804;12.596;2023-05-19T12:48:10;26.50;1.00
37281;DHT22;23169;41.804;12.596;2023-05-19T12:50:39;26.60;1.00
37281;DHT22;23169;41.804;12.596;2023-05-19T12:53:10;26.70;1.00
37281;DHT22;23169;41.804;12.596;2023-05-19T12:55:41;26.70;1.00
37281;DHT22;23169;41.804;12.596;2023-05-19T12:58:16;27.00;1.00
37281;DHT22;23169;41.804;12.596;2023-05-19T13:00:45;27.60;1.00
37281;DHT22;23169;41.804;12.596;2023-05-19T13:03:18;27.50;1.00
37281;DHT22;23169;41.804;12.596;2023-05-19T13:05:48;27.60;1.00
37281;DHT22;23169;41.804;12.596;2023-05-19T13:08:21;27.80;1.00
37281;DHT22;23169;41.804;12.596;2023-05-19T13:10:52;27.60;1.00
37281;DHT22;23169;41.804;12.596;2023-05-19T13:13:22;27.20;1.00
37281;DHT22;23169;41.804;12.596;2023-05-19T13:15:50;26.50;1.00
37281;DHT22;23169;41.804;12.596;2023-05-19T13:18:21;26.50;1.00
37281;DHT22;23169;41.804;12.596;2023-05-19T13:20:52;26.30;1.00
37281;DHT22;23169;41.804;12.596;2023-05-19T13:25:50;26.20;1.00
37281;DHT22;23169;41.804;12.596;2023-05-19T13:28:22;26.20;1.00
37281;DHT22;23169;41.804;12.596;2023-05-19T13:30:50;26.00;1.00
37281;DHT22;23169;41.804;12.596;2023-05-19T13:33:19;25.80;1.00
37281;DHT22;23169;41.804;12.596;2023-05-19T13:35:48;25.90;1.00
37281;DHT22;23169;41.804;12.596;2023-05-19T13:38:17;25.60;1.00
37281;DHT22;23169;41.804;12.596;2023-05-19T13:40:46;25.70;1.00
37281;DHT22;23169;41.804;12.596;2023-05-19T13:43:14;26.30;1.00
37281;DHT22;23169;41.804;12.596;2023-05-19T13:45:45;26.30;1.00
37281;DHT22;23169;41.804;12.596;2023-05-19T13:48:14;26.40;1.00
37281;DHT22;23169;41.804;12.596;2023-05-19T13:50:42;26.20;1.00
37281;DHT22;23169;41.804;12.596;2023-05-19T13:53:11;25.80;1.00
37281;DHT22;23169;41.804;12.596;2023-05-19T13:55:40;25.80;1.00
37281;DHT22;23169;41.804;12.596;2023-05-19T13:58:09;25.90;1.00
37281;DHT22;23169;41.804;12.596;2023-05-19T14:00:39;26.00;1.00
37281;DHT22;23169;41.804;12.596;2023-05-19T14:03:09;26.10;1.00
37281;DHT22;23169;41.804;12.596;2023-05-19T14:05:37;26.20;1.00
37281;DHT22;23169;41.804;12.596;2023-05-19T14:08:06;26.20;1.00
37281;DHT22;23169;41.804;12.596;2023-05-19T14:10:35;26.30;1.00
37281;DHT22;23169;41.804;12.596;2023-05-19T14:13:04;26.40;1.00
37281;DHT22;23169;41.804;12.596;2023-05-19T14:15:33;26.80;1.00
37281;DHT22;23169;41.804;12.596;2023-05-19T14:18:05;26.80;1.00
37281;DHT22;23169;41.804;12.596;2023-05-19T14:20:35;26.90;1.00
37281;DHT22;23169;41.804;12.596;2023-05-19T14:23:04;26.70;1.00
37281;DHT22;23169;41.804;12.596;2023-05-19T14:25:33;26.40;1.00
37281;DHT22;23169;41.804;12.596;2023-05-19T14:28:01;26.00;1.00
37281;DHT22;23169;41.804;12.596;2023-05-19T14:30:31;25.70;1.00
37281;DHT22;23169;41.804;12.596;2023-05-19T14:33:02;25.50;1.00
37281;DHT22;23169;41.804;12.596;2023-05-19T14:35:35;25.20;1.00
37281;DHT22;23169;41.804;12.596;2023-05-19T14:38:05;25.00;1.00
37281;DHT22;23169;41.804;12.596;2023-05-19T14:40:38;24.80;1.00
37281;DHT22;23169;41.804;12.596;2023-05-19T14:43:10;24.60;1.00
37281;DHT22;23169;41.804;12.596;2023-05-19T14:48:09;24.30;1.00
37281;DHT22;23169;41.804;12.596;2023-05-19T14:50:39;24.20;1.00
37281;DHT22;23169;41.804;12.596;2023-05-19T14:53:12;24.10;1.00
37281;DHT22;23169;41.804;12.596;2023-05-19T14:55:41;24.00;1.00
37281;DHT22;23169;41.804;12.596;2023-05-19T14:58:10;23.80;1.00
37281;DHT22;23169;41.804;12.596;2023-05-19T15:00:40;23.70;1.00
37281;DHT22;23169;41.804;12.596;2023-05-19T15:03:08;23.70;1.00
37281;DHT22;23169;41.804;12.596;2023-05-19T15:05:37;23.60;1.00
37281;DHT22;23169;41.804;12.596;2023-05-19T15:08:07;23.60;1.00
37281;DHT22;23169;41.804;12.596;2023-05-19T15:10:36;23.60;1.00
37281;DHT22;23169;41.804;12.596;2023-05-19T15:13:05;23.70;1.00
37281;DHT22;23169;41.804;12.596;2023-05-19T15:15:34;23.70;1.00
37281;DHT22;23169;41.804;12.596;2023-05-19T15:18:02;25.30;1.00
37281;DHT22;23169;41.804;12.596;2023-05-19T15:20:32;23.80;1.00
37281;DHT22;23169;41.804;12.596;2023-05-19T15:23:01;23.60;1.00
37281;DHT22;23169;41.804;12.596;2023-05-19T15:25:29;23.70;1.00
37281;DHT22;23169;41.804;12.596;2023-05-19T15:27:58;23.60;1.00
37281;DHT22;23169;41.804;12.596;2023-05-19T15:30:27;23.50;1.00
37281;DHT22;23169;41.804;12.596;2023-05-19T15:32:55;23.40;1.00
37281;DHT22;23169;41.804;12.596;2023-05-19T15:35:23;23.40;1.00
37281;DHT22;23169;41.804;12.596;2023-05-19T15:37:54;23.40;1.00
37281;DHT22;23169;41.804;12.596;2023-05-19T15:40:25;23.20;1.00
37281;DHT22;23169;41.804;12.596;2023-05-19T15:42:53;23.20;1.00
37281;DHT22;23169;41.804;12.596;2023-05-19T15:45:22;23.10;1.00
37281;DHT22;23169;41.804;12.596;2023-05-19T15:50:19;22.90;1.00
37281;DHT22;23169;41.804;12.596;2023-05-19T15:52:55;22.80;1.00
37281;DHT22;23169;41.804;12.596;2023-05-19T15:55:24;22.70;1.00
37281;DHT22;23169;41.804;12.596;2023-05-19T15:57:52;22.60;1.00
37281;DHT22;23169;41.804;12.596;2023-05-19T16:00:20;22.50;1.00
37281;DHT22;23169;41.804;12.596;2023-05-19T16:02:54;22.50;1.00
37281;DHT22;23169;41.804;12.596;2023-05-19T16:05:23;22.30;1.00
37281;DHT22;23169;41.804;12.596;2023-05-19T16:07:52;22.30;1.00
37281;DHT22;23169;41.804;12.596;2023-05-19T16:10:20;22.00;1.00
37281;DHT22;23169;41.804;12.596;2023-05-19T16:12:52;22.20;1.00
37281;DHT22;23169;41.804;12.596;2023-05-19T16:15:21;22.20;1.00
37281;DHT22;23169;41.804;12.596;2023-05-19T16:17:49;22.10;1.00
37281;DHT22;23169;41.804;12.596;2023-05-19T16:20:18;22.10;1.00
37281;DHT22;23169;41.804;12.596;2023-05-19T16:22:48;22.00;1.00
37281;DHT22;23169;41.804;12.596;2023-05-19T16:25:18;21.90;1.00
37281;DHT22;23169;41.804;12.596;2023-05-19T16:27:47;21.80;1.00
37281;DHT22;23169;41.804;12.596;2023-05-19T16:30:16;21.70;1.00
37281;DHT22;23169;41.804;12.596;2023-05-19T16:32:46;21.60;1.00
37281;DHT22;23169;41.804;12.596;2023-05-19T16:35:15;21.70;1.00
37281;DHT22;23169;41.804;12.596;2023-05-19T16:37:43;21.50;1.00
37281;DHT22;23169;41.804;12.596;2023-05-19T16:40:12;21.50;1.00
37281;DHT22;23169;41.804;12.596;2023-05-19T16:42:41;21.50;1.00
37281;DHT22;23169;41.804;12.596;2023-05-19T16:45:09;21.40;1.00
37281;DHT22;23169;41.804;12.596;2023-05-19T16:47:38;21.40;1.00
37281;DHT22;23169;41.804;12.596;2023-05-19T16:50:10;21.30;1.00
37281;DHT22;23169;41.804;12.596;2023-05-19T16:52:44;21.30;1.00
37281;DHT22;23169;41.804;12.596;2023-05-19T16:55:14;21.20;1.50
37281;DHT22;23169;41.804;12.596;2023-05-19T16:57:48;21.20;2.40
37281;DHT22;23169;41.804;12.596;2023-05-19T17:00:20;21.10;4.10
37281;DHT22;23169;41.804;12.596;2023-05-19T17:05:17;21.10;1.00
37281;DHT22;23169;41.804;12.596;2023-05-19T17:07:46;21.00;7.30
37281;DHT22;23169;41.804;12.596;2023-05-19T17:10:17;21.00;8.90